Edgewood, NM

11:14 AM MDT on May 04, 2015 (GMT -0600)
Clines Corner | | Change Station
CLOSE
Current Station
Airport
Location: Clines Corner,
Elevation: 7087 ft
Nearby Weather Stations

Elev 7087 ft 35.00 °N, 105.66 °W | Updated 21 minutes ago

Clear
Clear
62 °F
Feels Like 62 °F
N
9
Wind Variable Wind from East
Gusts 16 mph

Today
High -- | Low -- °F
--% Chance of Precip.
Yesterday
High -- | Low -- °F
Precip. -- in
6:10 AM 7:52 PM
Full, 100% visible
Pressure 29.89 in
Visibility 10.0 miles
Clouds Clear
Dew Point 40 °F
Humidity 44%
Rainfall 0.00 in
Snow Depth Not available.
UV 10 out of 12
Pollen 6.80 out of 12
Air Quality Not available.
Flu Activity Local Activity
METAR KCQC 041653Z AUTO 09008G14KT 10SM CLR 17/04 A3011 RMK AO2 SLP121 T01670044

More Conditions Fewer Conditions

Pressure 29.89 in
Visibility 10.0 miles
Clouds Clear
Dew Point 40 °F
Humidity 44%
Rainfall 0.00 in
Snow Depth Not available.
UV 10 out of 12
Pollen 6.80 out of 12
Air Quality Not available.
Flu Activity Local Activity
METAR KCQC 041653Z AUTO 09008G14KT 10SM CLR 17/04 A3011 RMK AO2 SLP121 T01670044

More Conditions Fewer Conditions

Nepal has a long way to go to dig out and rebuild from a devastating earthquake. We have teamed up with several charities and organizations to make contributing to the relief effort as easy as possible.
How you can help: Portlight Strategies | Red Cross
Nowcast | as of 10:33 am MDT on May 4, 2015

Isolated showers and thunderstorms with gusty winds and a few lightning strikes...will track north to northeast over portions of portions of western and central New Mexico this morning. Through noon MDT...this activity will favor extreme western locations including Luna...Quemado...Fence Lake...Zuni...Gallup...Narbona Pass and Newcomb. Showers and storms are expected to become more numerous later today and into the evening hours.

×

10-Day Weather Forecast

Almanac

Astronomy

May. 04, 2015 Rise Set
Actual Time
Civil Twilight
Nautical Twilight
Astronomical Twilight
Moon
Length of Visible Light
Length of Day
Tomorrow will be .
, % of the Moon is Illuminated

Today's Extremes

State Highs State Lows

Community

WunderPhotos

Upload Photos

1,818,654 photos uploaded!

WunderBlogs® & News

Nearby

Air Quality

  Air Quality AQ Index Pollutant
Not available.

Snow Depth

Station Depth Elevation

Earthquake Activity

City Distance Mag. Time & Date
Minimum magnitude displayed is 2.5.

Coastal Water Temperatures

Place Temperature

Stations

Nearby Weather Stations

Station Location Temp. Windchill Dew Point Humidity Wind Precip. Elev Updated Type